This is the latest recevied weather packets stored in our database for station/object W7BL. If no packets are shown the sender has not sent any weather packets the latest 10 day(s).
| Time | Temp. | Humidity | Pressure | Rain* | Wind** | Luminosity | Snow |
|---|---|---|---|---|---|---|---|
| 1778089733 | 21.11° C | 42% | - | 0 mm | - | - | - |
| 1778089431 | 21.11° C | 42% | - | 0 mm | - | - | - |
| 1778089128 | 21.11° C | 44% | - | 0 mm | - | - | - |
| 1778088825 | 21.67° C | 42% | - | 0 mm | - | - | - |
| 1778088522 | 20.56° C | 44% | - | 0 mm | - | - | - |
| 1778088218 | 21.11° C | 43% | - | 0 mm | - | - | - |
| 1778087916 | 20.56° C | 46% | - | 0 mm | - | - | - |
| 1778087613 | 20° C | 45% | - | 0 mm | - | - | - |
| 1778087311 | 21.11° C | 45% | - | 0 mm | - | - | - |
| 1778087006 | 20.56° C | 46% | - | 0 mm | - | - | - |
| 1778086706 | 20° C | 47% | - | 0 mm | - | - | - |
| 1778086403 | 19.44° C | 48% | - | 0 mm | - | - | - |
| 1778086099 | 19.44° C | 50% | - | 0 mm | - | - | - |
| 1778085796 | 18.89° C | 49% | - | 0 mm | - | - | - |
| 1778085493 | 18.89° C | 49% | - | 0 mm | - | - | - |
| 1778085188 | 18.89° C | 49% | - | 0 mm | - | - | - |
| 1778084884 | 18.89° C | 51% | - | 0 mm | - | - | - |
| 1778084582 | 17.78° C | 53% | - | 0 mm | - | - | - |
| 1778084279 | 18.33° C | 52% | - | 0 mm | - | - | - |
| 1778083976 | 17.22° C | 56% | - | 0 mm | - | - | - |
| 1778083674 | 17.78° C | 54% | - | 0 mm | - | - | - |
| 1778083370 | 17.22° C | 55% | - | 0 mm | - | - | - |
| 1778083069 | 16.11° C | 57% | - | 0 mm | - | - | - |
| 1778082766 | 15.56° C | 60% | - | 0 mm | - | - | - |
| 1778081633 | 15° C | 63% | - | 0 mm | - | - | - |
* Rain latest hour (hover to see other rain measurements)
** Current wind speed in m/s (hover to see current wind gust speed)